sensor_id;sensor_type;location;lat;lon;timestamp;pressure;altitude;pressure_sealevel;temperature;humidity
69667;BME280;66534;52.370;4.832;2023-06-22T00:00:02;101962.06;;;20.00;100.00
69667;BME280;66534;52.370;4.832;2023-06-22T00:00:38;101964.72;;;20.00;100.00
69667;BME280;66534;52.370;4.832;2023-06-22T00:01:12;101966.56;;;20.12;100.00
69667;BME280;66534;52.370;4.832;2023-06-22T00:01:42;101964.47;;;20.30;100.00
69667;BME280;66534;52.370;4.832;2023-06-22T00:02:12;101969.78;;;20.30;100.00
69667;BME280;66534;52.370;4.832;2023-06-22T00:02:43;101974.16;;;20.31;100.00
69667;BME280;66534;52.370;4.832;2023-06-22T00:03:13;101966.06;;;20.20;100.00
69667;BME280;66534;52.370;4.832;2023-06-22T00:03:43;101968.75;;;20.33;100.00
69667;BME280;66534;52.370;4.832;2023-06-22T00:04:14;101972.16;;;20.35;100.00
69667;BME280;66534;52.370;4.832;2023-06-22T00:04:44;101969.78;;;20.30;100.00
69667;BME280;66534;52.370;4.832;2023-06-22T00:05:14;101970.47;;;20.47;100.00
69667;BME280;66534;52.370;4.832;2023-06-22T00:05:45;101963.03;;;20.52;100.00
69667;BME280;66534;52.370;4.832;2023-06-22T00:06:15;101971.41;;;20.33;100.00
69667;BME280;66534;52.370;4.832;2023-06-22T00:06:46;101967.66;;;20.35;100.00
69667;BME280;66534;52.370;4.832;2023-06-22T00:07:16;101968.81;;;20.31;100.00
69667;BME280;66534;52.370;4.832;2023-06-22T00:07:46;101969.94;;;20.42;100.00
69667;BME280;66534;52.370;4.832;2023-06-22T00:08:17;101974.09;;;20.46;100.00
69667;BME280;66534;52.370;4.832;2023-06-22T00:08:47;101966.47;;;20.54;100.00
69667;BME280;66534;52.370;4.832;2023-06-22T00:09:18;101970.56;;;20.45;100.00
69667;BME280;66534;52.370;4.832;2023-06-22T00:09:48;101969.97;;;20.54;100.00
69667;BME280;66534;52.370;4.832;2023-06-22T00:10:18;101975.56;;;20.24;100.00
69667;BME280;66534;52.370;4.832;2023-06-22T00:10:48;101975.75;;;20.21;100.00
69667;BME280;66534;52.370;4.832;2023-06-22T00:11:19;101967.31;;;20.27;100.00
69667;BME280;66534;52.370;4.832;2023-06-22T00:11:50;101975.84;;;20.07;100.00
69667;BME280;66534;52.370;4.832;2023-06-22T00:12:20;101975.94;;;20.18;100.00
69667;BME280;66534;52.370;4.832;2023-06-22T00:12:50;101973.66;;;20.39;100.00
69667;BME280;66534;52.370;4.832;2023-06-22T00:13:21;101975.25;;;20.29;100.00
69667;BME280;66534;52.370;4.832;2023-06-22T00:13:51;101979.94;;;20.38;100.00
69667;BME280;66534;52.370;4.832;2023-06-22T00:14:21;101973.44;;;20.42;100.00
69667;BME280;66534;52.370;4.832;2023-06-22T00:14:52;101982.22;;;20.44;100.00
69667;BME280;66534;52.370;4.832;2023-06-22T00:15:22;101978.28;;;20.50;100.00
69667;BME280;66534;52.370;4.832;2023-06-22T00:15:53;101977.13;;;20.27;100.00
69667;BME280;66534;52.370;4.832;2023-06-22T00:16:23;101983.09;;;20.18;100.00
69667;BME280;66534;52.370;4.832;2023-06-22T00:16:53;101979.03;;;20.12;100.00
69667;BME280;66534;52.370;4.832;2023-06-22T00:17:25;101982.28;;;20.30;100.00
69667;BME280;66534;52.370;4.832;2023-06-22T00:17:55;101979.69;;;20.15;100.00
69667;BME280;66534;52.370;4.832;2023-06-22T00:18:28;101978.44;;;20.34;100.00
69667;BME280;66534;52.370;4.832;2023-06-22T00:19:00;101974.59;;;20.38;100.00
69667;BME280;66534;52.370;4.832;2023-06-22T00:19:32;101972.59;;;20.42;100.00
69667;BME280;66534;52.370;4.832;2023-06-22T00:20:05;101976.34;;;20.52;100.00
69667;BME280;66534;52.370;4.832;2023-06-22T00:20:36;101972.47;;;20.43;100.00
69667;BME280;66534;52.370;4.832;2023-06-22T00:21:09;101977.06;;;20.41;100.00
69667;BME280;66534;52.370;4.832;2023-06-22T00:21:39;101977.91;;;20.29;100.00
69667;BME280;66534;52.370;4.832;2023-06-22T00:22:10;101975.78;;;20.47;100.00
69667;BME280;66534;52.370;4.832;2023-06-22T00:22:40;101976.88;;;20.44;100.00
69667;BME280;66534;52.370;4.832;2023-06-22T00:23:10;101974.50;;;20.39;100.00
69667;BME280;66534;52.370;4.832;2023-06-22T00:23:41;101974.34;;;20.55;100.00
69667;BME280;66534;52.370;4.832;2023-06-22T00:24:11;101969.84;;;20.56;100.00
69667;BME280;66534;52.370;4.832;2023-06-22T00:24:41;101968.81;;;20.71;100.00
69667;BME280;66534;52.370;4.832;2023-06-22T00:25:12;101973.28;;;20.71;100.00
69667;BME280;66534;52.370;4.832;2023-06-22T00:25:42;101975.75;;;20.61;100.00
69667;BME280;66534;52.370;4.832;2023-06-22T00:26:13;101979.91;;;20.65;100.00
69667;BME280;66534;52.370;4.832;2023-06-22T00:26:43;101975.19;;;20.69;100.00
69667;BME280;66534;52.370;4.832;2023-06-22T00:27:14;101978.72;;;20.69;100.00
69667;BME280;66534;52.370;4.832;2023-06-22T00:27:44;101973.69;;;20.77;100.00
69667;BME280;66534;52.370;4.832;2023-06-22T00:28:15;101980.09;;;20.49;100.00
69667;BME280;66534;52.370;4.832;2023-06-22T00:28:46;101976.19;;;20.15;100.00
69667;BME280;66534;52.370;4.832;2023-06-22T00:29:16;101978.97;;;20.39;100.00
69667;BME280;66534;52.370;4.832;2023-06-22T00:29:48;101978.78;;;20.42;100.00
69667;BME280;66534;52.370;4.832;2023-06-22T00:30:18;101980.84;;;20.51;100.00
69667;BME280;66534;52.370;4.832;2023-06-22T00:30:49;101982.53;;;20.52;100.00
69667;BME280;66534;52.370;4.832;2023-06-22T00:31:19;101975.09;;;20.57;100.00
69667;BME280;66534;52.370;4.832;2023-06-22T00:31:50;101974.78;;;20.62;100.00
69667;BME280;66534;52.370;4.832;2023-06-22T00:32:20;101975.09;;;20.57;100.00
69667;BME280;66534;52.370;4.832;2023-06-22T00:32:50;101973.50;;;20.68;100.00
69667;BME280;66534;52.370;4.832;2023-06-22T00:33:21;101985.84;;;20.56;100.00
69667;BME280;66534;52.370;4.832;2023-06-22T00:33:51;101969.00;;;20.55;100.00
69667;BME280;66534;52.370;4.832;2023-06-22T00:34:21;101983.00;;;20.59;100.00
69667;BME280;66534;52.370;4.832;2023-06-22T00:34:52;101972.97;;;20.50;100.00
69667;BME280;66534;52.370;4.832;2023-06-22T00:35:22;101982.81;;;20.48;100.00
69667;BME280;66534;52.370;4.832;2023-06-22T00:35:52;101971.78;;;20.54;100.00
69667;BME280;66534;52.370;4.832;2023-06-22T00:36:23;101981.13;;;20.47;100.00
69667;BME280;66534;52.370;4.832;2023-06-22T00:36:54;101976.53;;;20.36;100.00
69667;BME280;66534;52.370;4.832;2023-06-22T00:37:25;101974.47;;;20.27;100.00
69667;BME280;66534;52.370;4.832;2023-06-22T00:37:56;101979.19;;;20.23;100.00
69667;BME280;66534;52.370;4.832;2023-06-22T00:38:30;101977.91;;;20.29;100.00
69667;BME280;66534;52.370;4.832;2023-06-22T00:39:01;101983.63;;;20.23;100.00
69667;BME280;66534;52.370;4.832;2023-06-22T00:39:31;101980.44;;;20.18;100.00
69667;BME280;66534;52.370;4.832;2023-06-22T00:40:03;101982.13;;;20.19;100.00
69667;BME280;66534;52.370;4.832;2023-06-22T00:40:35;101978.53;;;20.20;100.00
69667;BME280;66534;52.370;4.832;2023-06-22T00:41:05;101981.94;;;20.22;100.00
69667;BME280;66534;52.370;4.832;2023-06-22T00:41:35;101981.06;;;20.21;100.00
69667;BME280;66534;52.370;4.832;2023-06-22T00:42:06;101980.63;;;20.14;100.00
69667;BME280;66534;52.370;4.832;2023-06-22T00:42:36;101981.69;;;20.12;100.00
69667;BME280;66534;52.370;4.832;2023-06-22T00:43:07;101979.56;;;20.17;100.00
69667;BME280;66534;52.370;4.832;2023-06-22T00:43:37;101978.72;;;20.17;100.00
69667;BME280;66534;52.370;4.832;2023-06-22T00:44:07;101979.47;;;20.19;100.00
69667;BME280;66534;52.370;4.832;2023-06-22T00:44:38;101972.09;;;20.09;100.00
69667;BME280;66534;52.370;4.832;2023-06-22T00:45:09;101970.31;;;20.23;100.00
69667;BME280;66534;52.370;4.832;2023-06-22T00:45:39;101973.94;;;20.22;100.00
69667;BME280;66534;52.370;4.832;2023-06-22T00:46:09;101973.66;;;20.39;100.00
69667;BME280;66534;52.370;4.832;2023-06-22T00:46:40;101970.97;;;20.39;100.00
69667;BME280;66534;52.370;4.832;2023-06-22T00:47:11;101971.59;;;20.30;100.00
69667;BME280;66534;52.370;4.832;2023-06-22T00:47:42;101964.97;;;20.23;100.00
69667;BME280;66534;52.370;4.832;2023-06-22T00:48:14;101971.28;;;20.22;100.00
69667;BME280;66534;52.370;4.832;2023-06-22T00:48:44;101975.66;;;20.35;100.00
69667;BME280;66534;52.370;4.832;2023-06-22T00:49:15;101969.72;;;20.45;100.00
69667;BME280;66534;52.370;4.832;2023-06-22T00:49:46;101969.94;;;20.42;100.00
69667;BME280;66534;52.370;4.832;2023-06-22T00:50:19;101971.28;;;20.22;100.00
69667;BME280;66534;52.370;4.832;2023-06-22T00:50:51;101968.00;;;20.44;100.00
69667;BME280;66534;52.370;4.832;2023-06-22T00:51:23;101965.34;;;20.44;100.00
69667;BME280;66534;52.370;4.832;2023-06-22T00:51:54;101968.94;;;20.30;100.00
69667;BME280;66534;52.370;4.832;2023-06-22T00:52:26;101978.53;;;20.20;100.00
69667;BME280;66534;52.370;4.832;2023-06-22T00:53:00;101966.41;;;20.28;100.00
69667;BME280;66534;52.370;4.832;2023-06-22T00:53:30;101968.53;;;20.23;100.00
69667;BME280;66534;52.370;4.832;2023-06-22T00:54:04;101973.84;;;20.23;100.00
69667;BME280;66534;52.370;4.832;2023-06-22T00:54:35;101972.78;;;20.38;100.00
69667;BME280;66534;52.370;4.832;2023-06-22T00:55:06;101967.75;;;20.21;100.00
69667;BME280;66534;52.370;4.832;2023-06-22T00:55:37;101967.03;;;20.32;100.00
69667;BME280;66534;52.370;4.832;2023-06-22T00:56:08;101965.31;;;20.31;100.00
69667;BME280;66534;52.370;4.832;2023-06-22T00:56:41;101967.47;;;20.38;100.00
69667;BME280;66534;52.370;4.832;2023-06-22T00:57:13;101967.59;;;20.37;100.00
69667;BME280;66534;52.370;4.832;2023-06-22T00:57:46;101968.94;;;20.30;100.00
69667;BME280;66534;52.370;4.832;2023-06-22T00:58:18;101967.03;;;20.32;100.00
69667;BME280;66534;52.370;4.832;2023-06-22T00:58:51;101966.63;;;20.38;100.00
69667;BME280;66534;52.370;4.832;2023-06-22T00:59:23;101968.38;;;20.52;100.00
69667;BME280;66534;52.370;4.832;2023-06-22T00:59:53;101965.50;;;20.55;100.00
69667;BME280;66534;52.370;4.832;2023-06-22T01:00:24;101966.88;;;20.60;100.00
69667;BME280;66534;52.370;4.832;2023-06-22T01:00:54;101964.75;;;20.53;100.00
69667;BME280;66534;52.370;4.832;2023-06-22T01:01:25;101964.84;;;20.51;100.00
69667;BME280;66534;52.370;4.832;2023-06-22T01:01:55;101966.31;;;20.43;100.00
69667;BME280;66534;52.370;4.832;2023-06-22T01:02:26;101968.31;;;20.39;100.00
69667;BME280;66534;52.370;4.832;2023-06-22T01:02:56;101966.53;;;20.52;100.00
69667;BME280;66534;52.370;4.832;2023-06-22T01:03:26;101962.41;;;20.61;100.00
69667;BME280;66534;52.370;4.832;2023-06-22T01:03:57;101961.97;;;20.54;100.00
69667;BME280;66534;52.370;4.832;2023-06-22T01:04:34;101963.63;;;20.43;100.00
69667;BME280;66534;52.370;4.832;2023-06-22T01:05:04;101956.66;;;20.54;100.00
69667;BME280;66534;52.370;4.832;2023-06-22T01:05:35;101960.81;;;20.58;100.00
69667;BME280;66534;52.370;4.832;2023-06-22T01:06:07;101960.81;;;20.71;100.00
69667;BME280;66534;52.370;4.832;2023-06-22T01:06:51;101956.44;;;20.57;100.00
69667;BME280;66534;52.370;4.832;2023-06-22T01:07:35;101949.13;;;20.47;100.00
69667;BME280;66534;52.370;4.832;2023-06-22T01:08:31;101963.63;;;20.43;100.00
69667;BME280;66534;52.370;4.832;2023-06-22T01:09:15;101958.34;;;20.55;100.00
69667;BME280;66534;52.370;4.832;2023-06-22T01:09:53;101955.28;;;20.61;100.00
69667;BME280;66534;52.370;4.832;2023-06-22T01:10:40;101962.13;;;20.38;100.00
69667;BME280;66534;52.370;4.832;2023-06-22T01:11:54;101955.75;;;20.28;100.00
69667;BME280;66534;52.370;4.832;2023-06-22T01:12:26;101964.06;;;20.36;100.00
69667;BME280;66534;52.370;4.832;2023-06-22T01:15:08;101955.34;;;20.73;100.00
69667;BME280;66534;52.370;4.832;2023-06-22T01:15:43;101959.31;;;20.67;100.00
69667;BME280;66534;52.370;4.832;2023-06-22T01:16:52;101952.38;;;20.64;100.00
69667;BME280;66534;52.370;4.832;2023-06-22T01:17:25;101954.44;;;20.74;100.00
69667;BME280;66534;52.370;4.832;2023-06-22T01:17:57;101946.44;;;20.74;100.00
69667;BME280;66534;52.370;4.832;2023-06-22T01:18:30;101949.38;;;20.69;100.00
69667;BME280;66534;52.370;4.832;2023-06-22T01:19:01;101949.81;;;20.63;100.00
69667;BME280;66534;52.370;4.832;2023-06-22T01:19:55;101945.09;;;20.41;100.00
69667;BME280;66534;52.370;4.832;2023-06-22T01:20:27;101951.66;;;20.23;100.00
69667;BME280;66534;52.370;4.832;2023-06-22T01:20:58;101947.59;;;20.17;100.00
69667;BME280;66534;52.370;4.832;2023-06-22T01:21:30;101938.66;;;20.18;100.00
69667;BME280;66534;52.370;4.832;2023-06-22T01:22:01;101941.75;;;20.12;100.00
69667;BME280;66534;52.370;4.832;2023-06-22T01:22:38;101942.72;;;20.24;100.00
69667;BME280;66534;52.370;4.832;2023-06-22T01:24:09;101938.91;;;20.28;100.00
69667;BME280;66534;52.370;4.832;2023-06-22T01:25:26;101948.56;;;20.16;100.00
69667;BME280;66534;52.370;4.832;2023-06-22T01:25:33;101943.47;;;20.26;100.00
69667;BME280;66534;52.370;4.832;2023-06-22T01:26:08;101948.06;;;20.24;100.00
69667;BME280;66534;52.370;4.832;2023-06-22T01:28:49;101944.41;;;20.12;100.00
69667;BME280;66534;52.370;4.832;2023-06-22T01:29:20;101942.88;;;19.95;100.00
69667;BME280;66534;52.370;4.832;2023-06-22T01:29:51;101947.13;;;19.98;100.00
69667;BME280;66534;52.370;4.832;2023-06-22T01:30:22;101949.78;;;19.98;100.00
69667;BME280;66534;52.370;4.832;2023-06-22T01:30:56;101947.56;;;20.04;100.00
69667;BME280;66534;52.370;4.832;2023-06-22T01:31:35;101947.94;;;20.25;100.00
69667;BME280;66534;52.370;4.832;2023-06-22T01:32:06;101954.25;;;20.24;100.00
69667;BME280;66534;52.370;4.832;2023-06-22T01:32:38;101950.91;;;20.21;100.00
69667;BME280;66534;52.370;4.832;2023-06-22T01:33:10;101942.16;;;20.19;100.00
69667;BME280;66534;52.370;4.832;2023-06-22T01:33:42;101945.38;;;20.11;100.00
69667;BME280;66534;52.370;4.832;2023-06-22T01:34:13;101946.91;;;20.28;100.00
69667;BME280;66534;52.370;4.832;2023-06-22T01:34:44;101944.56;;;20.36;100.00
69667;BME280;66534;52.370;4.832;2023-06-22T01:35:15;101945.09;;;20.41;100.00
69667;BME280;66534;52.370;4.832;2023-06-22T01:35:46;101948.78;;;20.26;100.00
69667;BME280;66534;52.370;4.832;2023-06-22T01:36:17;101946.88;;;20.15;100.00
69667;BME280;66534;52.370;4.832;2023-06-22T01:36:49;101944.41;;;20.12;100.00
69667;BME280;66534;52.370;4.832;2023-06-22T01:37:21;101953.78;;;20.18;100.00
69667;BME280;66534;52.370;4.832;2023-06-22T01:37:51;101946.13;;;20.26;100.00
69667;BME280;66534;52.370;4.832;2023-06-22T01:38:22;101954.63;;;20.18;100.00
69667;BME280;66534;52.370;4.832;2023-06-22T01:38:53;101952.06;;;20.04;100.00
69667;BME280;66534;52.370;4.832;2023-06-22T01:39:23;101944.81;;;20.06;100.00
69667;BME280;66534;52.370;4.832;2023-06-22T01:39:55;101956.53;;;20.03;100.00
69667;BME280;66534;52.370;4.832;2023-06-22T01:40:25;101957.50;;;20.02;100.00
69667;BME280;66534;52.370;4.832;2023-06-22T01:40:57;101954.88;;;20.15;100.00
69667;BME280;66534;52.370;4.832;2023-06-22T01:41:28;101953.34;;;20.11;100.00
69667;BME280;66534;52.370;4.832;2023-06-22T01:41:59;101951.84;;;20.07;100.00
69667;BME280;66534;52.370;4.832;2023-06-22T01:42:30;101958.47;;;20.27;100.00
69667;BME280;66534;52.370;4.832;2023-06-22T01:43:01;101956.41;;;20.05;100.00
69667;BME280;66534;52.370;4.832;2023-06-22T01:43:32;101957.06;;;20.08;100.00
69667;BME280;66534;52.370;4.832;2023-06-22T01:44:05;101953.59;;;20.21;100.00
69667;BME280;66534;52.370;4.832;2023-06-22T01:44:39;101961.97;;;20.14;100.00
69667;BME280;66534;52.370;4.832;2023-06-22T01:45:10;101953.06;;;20.15;100.00
69667;BME280;66534;52.370;4.832;2023-06-22T01:45:41;101952.84;;;20.31;100.00
69667;BME280;66534;52.370;4.832;2023-06-22T01:46:12;101949.25;;;20.32;100.00
69667;BME280;66534;52.370;4.832;2023-06-22T01:46:42;101953.16;;;20.27;100.00
69667;BME280;66534;52.370;4.832;2023-06-22T01:47:13;101958.75;;;20.36;100.00
69667;BME280;66534;52.370;4.832;2023-06-22T01:47:44;101952.78;;;20.46;100.00
69667;BME280;66534;52.370;4.832;2023-06-22T01:48:14;101950.81;;;20.35;100.00
69667;BME280;66534;52.370;4.832;2023-06-22T01:48:45;101952.00;;;20.31;100.00
69667;BME280;66534;52.370;4.832;2023-06-22T01:49:16;101956.91;;;20.24;100.00
69667;BME280;66534;52.370;4.832;2023-06-22T01:49:47;101953.69;;;20.19;100.00
69667;BME280;66534;52.370;4.832;2023-06-22T01:50:17;101953.91;;;20.16;100.00
69667;BME280;66534;52.370;4.832;2023-06-22T01:50:48;101954.56;;;20.20;100.00
69667;BME280;66534;52.370;4.832;2023-06-22T01:51:18;101954.25;;;20.24;100.00
69667;BME280;66534;52.370;4.832;2023-06-22T01:51:48;101951.47;;;20.26;100.00
69667;BME280;66534;52.370;4.832;2023-06-22T01:52:19;101950.81;;;20.22;100.00
69667;BME280;66534;52.370;4.832;2023-06-22T01:52:51;101950.50;;;19.87;100.00
69667;BME280;66534;52.370;4.832;2023-06-22T01:53:21;101951.47;;;19.86;100.00
69667;BME280;66534;52.370;4.832;2023-06-22T01:53:52;101953.88;;;20.03;100.00
69667;BME280;66534;52.370;4.832;2023-06-22T01:54:22;101951.44;;;20.13;100.00
69667;BME280;66534;52.370;4.832;2023-06-22T01:54:53;101949.09;;;20.21;100.00
69667;BME280;66534;52.370;4.832;2023-06-22T01:55:23;101957.13;;;20.34;100.00
69667;BME280;66534;52.370;4.832;2023-06-22T01:55:53;101948.78;;;20.26;100.00
69667;BME280;66534;52.370;4.832;2023-06-22T01:56:24;101948.69;;;20.27;100.00
69667;BME280;66534;52.370;4.832;2023-06-22T01:56:56;101951.25;;;20.29;100.00
69667;BME280;66534;52.370;4.832;2023-06-22T01:57:27;101951.69;;;20.35;100.00
69667;BME280;66534;52.370;4.832;2023-06-22T01:57:57;101947.50;;;20.31;100.00
69667;BME280;66534;52.370;4.832;2023-06-22T01:58:28;101939.66;;;20.43;100.00
69667;BME280;66534;52.370;4.832;2023-06-22T01:59:17;101943.06;;;20.45;100.00
69667;BME280;66534;52.370;4.832;2023-06-22T02:00:00;101942.19;;;20.31;100.00
69667;BME280;66534;52.370;4.832;2023-06-22T02:00:32;101942.59;;;20.12;100.00
69667;BME280;66534;52.370;4.832;2023-06-22T02:01:09;101942.91;;;20.08;100.00
69667;BME280;66534;52.370;4.832;2023-06-22T02:01:42;101945.53;;;19.95;100.00
69667;BME280;66534;52.370;4.832;2023-06-22T02:02:13;101946.50;;;19.94;100.00
69667;BME280;66534;52.370;4.832;2023-06-22T02:03:18;101948.22;;;20.08;100.00
69667;BME280;66534;52.370;4.832;2023-06-22T02:03:53;101940.31;;;20.06;100.00
69667;BME280;66534;52.370;4.832;2023-06-22T02:04:37;101944.59;;;20.09;100.00
69667;BME280;66534;52.370;4.832;2023-06-22T02:05:11;101937.94;;;19.89;100.00
69667;BME280;66534;52.370;4.832;2023-06-22T02:05:49;101939.94;;;20.12;100.00
69667;BME280;66534;52.370;4.832;2023-06-22T02:06:21;101937.22;;;20.00;100.00
69667;BME280;66534;52.370;4.832;2023-06-22T02:06:56;101940.78;;;20.13;100.00
69667;BME280;66534;52.370;4.832;2023-06-22T02:07:29;101939.22;;;20.23;100.00
69667;BME280;66534;52.370;4.832;2023-06-22T02:08:06;101936.22;;;20.15;100.00
69667;BME280;66534;52.370;4.832;2023-06-22T02:08:57;101940.91;;;20.24;100.00
69667;BME280;66534;52.370;4.832;2023-06-22T02:09:29;101936.44;;;20.25;100.00
69667;BME280;66534;52.370;4.832;2023-06-22T02:10:00;101927.16;;;20.30;100.00
69667;BME280;66534;52.370;4.832;2023-06-22T02:10:32;101945.28;;;20.25;100.00
69667;BME280;66534;52.370;4.832;2023-06-22T02:11:02;101935.91;;;20.32;100.00
69667;BME280;66534;52.370;4.832;2023-06-22T02:11:33;101936.34;;;20.39;100.00
69667;BME280;66534;52.370;4.832;2023-06-22T02:12:05;101940.16;;;20.22;100.00
69667;BME280;66534;52.370;4.832;2023-06-22T02:12:36;101939.63;;;20.17;100.00
69667;BME280;66534;52.370;4.832;2023-06-22T02:13:07;101939.22;;;20.36;100.00
69667;BME280;66534;52.370;4.832;2023-06-22T02:13:39;101936.31;;;20.13;100.00
69667;BME280;66534;52.370;4.832;2023-06-22T02:14:13;101940.38;;;20.19;100.00
69667;BME280;66534;52.370;4.832;2023-06-22T02:14:44;101950.97;;;20.06;100.00
69667;BME280;66534;52.370;4.832;2023-06-22T02:15:16;101943.50;;;19.86;100.00
69667;BME280;66534;52.370;4.832;2023-06-22T02:15:47;101946.91;;;20.01;100.00
69667;BME280;66534;52.370;4.832;2023-06-22T02:16:17;101950.84;;;19.95;100.00
69667;BME280;66534;52.370;4.832;2023-06-22T02:16:48;101943.91;;;19.93;100.00
69667;BME280;66534;52.370;4.832;2023-06-22T02:17:18;101947.69;;;20.03;100.00
69667;BME280;66534;52.370;4.832;2023-06-22T02:17:49;101944.56;;;19.96;100.00
69667;BME280;66534;52.370;4.832;2023-06-22T02:18:19;101946.72;;;20.04;100.00
69667;BME280;66534;52.370;4.832;2023-06-22T02:18:50;101942.25;;;20.04;100.00
69667;BME280;66534;52.370;4.832;2023-06-22T02:19:24;101945.06;;;20.15;100.00
69667;BME280;66534;52.370;4.832;2023-06-22T02:19:54;101942.72;;;20.11;100.00
69667;BME280;66534;52.370;4.832;2023-06-22T02:20:25;101941.88;;;20.23;100.00
69667;BME280;66534;52.370;4.832;2023-06-22T02:20:55;101942.38;;;20.03;100.00
69667;BME280;66534;52.370;4.832;2023-06-22T02:21:25;101940.59;;;20.16;100.00
69667;BME280;66534;52.370;4.832;2023-06-22T02:21:56;101947.75;;;20.28;100.00
69667;BME280;66534;52.370;4.832;2023-06-22T02:22:26;101933.97;;;20.22;100.00
69667;BME280;66534;52.370;4.832;2023-06-22T02:22:57;101940.47;;;20.18;100.00
69667;BME280;66534;52.370;4.832;2023-06-22T02:23:27;101901.31;;;19.93;100.00
69667;BME280;66534;52.370;4.832;2023-06-22T02:23:58;101941.09;;;20.08;100.00
69667;BME280;66534;52.370;4.832;2023-06-22T02:24:28;101938.56;;;20.20;100.00
69667;BME280;66534;52.370;4.832;2023-06-22T02:25:01;101938.44;;;20.08;100.00
69667;BME280;66534;52.370;4.832;2023-06-22T02:25:31;101938.53;;;20.07;100.00
69667;BME280;66534;52.370;4.832;2023-06-22T02:26:04;101935.53;;;19.99;100.00
69667;BME280;66534;52.370;4.832;2023-06-22T02:26:35;101941.97;;;19.82;100.00
69667;BME280;66534;52.370;4.832;2023-06-22T02:27:08;101934.03;;;19.68;100.00
69667;BME280;66534;52.370;4.832;2023-06-22T02:27:38;101934.34;;;19.63;100.00
69667;BME280;66534;52.370;4.832;2023-06-22T02:28:10;101935.34;;;19.60;100.00
69667;BME280;66534;52.370;4.832;2023-06-22T02:28:40;101933.47;;;19.62;100.00
69667;BME280;66534;52.370;4.832;2023-06-22T02:29:11;101932.53;;;19.63;100.00
69667;BME280;66534;52.370;4.832;2023-06-22T02:29:41;101930.13;;;19.73;100.00
69667;BME280;66534;52.370;4.832;2023-06-22T02:30:12;101931.53;;;19.79;100.00
69667;BME280;66534;52.370;4.832;2023-06-22T02:30:42;101925.69;;;19.86;100.00
69667;BME280;66534;52.370;4.832;2023-06-22T02:31:12;101930.91;;;19.88;100.00
69667;BME280;66534;52.370;4.832;2023-06-22T02:31:43;101934.31;;;19.77;100.00
69667;BME280;66534;52.370;4.832;2023-06-22T02:32:13;101927.84;;;19.67;100.00
69667;BME280;66534;52.370;4.832;2023-06-22T02:32:45;101926.31;;;19.77;100.00
69667;BME280;66534;52.370;4.832;2023-06-22T02:33:15;101926.31;;;19.77;100.00
69667;BME280;66534;52.370;4.832;2023-06-22T02:33:46;101934.56;;;19.73;100.00
69667;BME280;66534;52.370;4.832;2023-06-22T02:34:16;101930.88;;;19.75;100.00
69667;BME280;66534;52.370;4.832;2023-06-22T02:34:48;101932.06;;;19.84;100.00
69667;BME280;66534;52.370;4.832;2023-06-22T02:35:18;101927.06;;;19.79;100.00
69667;BME280;66534;52.370;4.832;2023-06-22T02:35:48;101930.56;;;19.80;100.00
69667;BME280;66534;52.370;4.832;2023-06-22T02:36:19;101923.66;;;19.77;100.00
69667;BME280;66534;52.370;4.832;2023-06-22T02:36:52;101931.19;;;19.71;100.00
69667;BME280;66534;52.370;4.832;2023-06-22T02:37:22;101933.09;;;19.81;100.00
69667;BME280;66534;52.370;4.832;2023-06-22T02:37:55;101928.09;;;19.77;100.00
69667;BME280;66534;52.370;4.832;2023-06-22T02:38:25;101929.91;;;19.76;100.00
69667;BME280;66534;52.370;4.832;2023-06-22T02:38:56;101934.81;;;19.70;100.00
69667;BME280;66534;52.370;4.832;2023-06-22T02:39:29;101928.81;;;19.66;100.00
69667;BME280;66534;52.370;4.832;2023-06-22T02:39:59;101930.13;;;19.73;100.00
69667;BME280;66534;52.370;4.832;2023-06-22T02:40:29;101936.75;;;19.80;100.00
69667;BME280;66534;52.370;4.832;2023-06-22T02:41:00;101929.59;;;19.81;100.00
69667;BME280;66534;52.370;4.832;2023-06-22T02:41:31;101928.97;;;19.77;100.00
69667;BME280;66534;52.370;4.832;2023-06-22T02:42:01;101945.81;;;19.78;100.00
69667;BME280;66534;52.370;4.832;2023-06-22T02:42:32;101935.88;;;19.80;100.00
69667;BME280;66534;52.370;4.832;2023-06-22T02:43:02;101931.75;;;19.88;100.00
69667;BME280;66534;52.370;4.832;2023-06-22T02:43:33;101932.88;;;19.99;100.00
69667;BME280;66534;52.370;4.832;2023-06-22T02:44:03;101936.13;;;19.89;100.00
69667;BME280;66534;52.370;4.832;2023-06-22T02:44:33;101937.34;;;19.98;100.00
69667;BME280;66534;52.370;4.832;2023-06-22T02:45:04;101937.97;;;20.02;100.00
69667;BME280;66534;52.370;4.832;2023-06-22T02:45:34;101930.72;;;19.91;100.00
69667;BME280;66534;52.370;4.832;2023-06-22T02:46:05;101933.03;;;19.83;100.00
69667;BME280;66534;52.370;4.832;2023-06-22T02:46:35;101928.81;;;19.66;100.00
69667;BME280;66534;52.370;4.832;2023-06-22T02:47:06;101930.72;;;19.64;100.00
69667;BME280;66534;52.370;4.832;2023-06-22T02:47:36;101929.34;;;19.71;100.00
69667;BME280;66534;52.370;4.832;2023-06-22T02:48:06;101935.47;;;19.73;100.00
69667;BME280;66534;52.370;4.832;2023-06-22T02:48:37;101929.72;;;19.79;100.00
69667;BME280;66534;52.370;4.832;2023-06-22T02:49:07;101930.31;;;19.70;100.00
69667;BME280;66534;52.370;4.832;2023-06-22T02:49:37;101928.28;;;19.61;100.00
69667;BME280;66534;52.370;4.832;2023-06-22T02:50:08;101931.06;;;19.72;100.00
69667;BME280;66534;52.370;4.832;2023-06-22T02:50:38;101925.25;;;19.80;100.00
69667;BME280;66534;52.370;4.832;2023-06-22T02:51:09;101922.41;;;19.96;100.00